Bright Hope — HPTM — position and weather

sailwx.info

Track history (hours):
 
Tides and Currents Weather Stations Pressure Air Temp Water Temp Dewpoint Dewpoint Depression Visibility Wind Speed Wind Dir Waves Ship Positions

Bright Hope

Last reported at 2014-Nov-21 19:15 UTC. Time now 2014-Nov-22 14:25 UTC.
Position N 22°49' E 120°03'.

Length 170 m; draft 5.9 m.

Type: Cargo ship. MMSI: 371117000.

Date/timePositionNaut miles runAvg speedWind from/ knotsBaromVisibWave heightAir tempDewpointWater temp
2014-Nov-21 19:15N 22°49' E 120°03'913.0
2014-Nov-21 18:33N 22°42' E 120°09'10 9.8
2014-Nov-21 17:33N 22°37' E 120°17'1 0.6
2014-Nov-21 16:34N 22°36' E 120°18'0 0.0
2014-Nov-21 15:28N 22°36' E 120°18'0 0.0
2014-Nov-21 14:34N 22°36' E 120°18'0 0.0
2014-Nov-21 13:28N 22°36' E 120°18'0 0.0
2014-Nov-21 12:28N 22°36' E 120°18'0 0.0
2014-Nov-21 11:28N 22°36' E 120°18'0 0.0
2014-Nov-21 10:34N 22°36' E 120°18'0 0.0
2014-Nov-21 09:28N 22°36' E 120°18'0 0.0
2014-Nov-21 08:22N 22°36' E 120°18'0 0.0
2014-Nov-21 07:34N 22°36' E 120°18'0 0.0
2014-Nov-21 06:28N 22°36' E 120°18'0 0.0
2014-Nov-21 05:28N 22°36' E 120°18'0 0.0
2014-Nov-21 04:28N 22°36' E 120°18'0 0.0
2014-Nov-21 03:28N 22°36' E 120°18'0 0.0
2014-Nov-21 02:22N 22°36' E 120°18'0 0.0
2014-Nov-21 01:33N 22°36' E 120°18'1 0.9
2014-Nov-21 00:33N 22°37' E 120°17'5 5.5
2014-Nov-20 23:34N 22°38' E 120°11'6 6.0
2014-Nov-20 22:33N 22°42' E 120°07'1111.2
2014-Nov-20 21:33N 22°49' E 119°57'  
2014-Nov-17 00:11N 33°55' E 134°54'812.3
2014-Nov-16 23:33N 34°03' E 134°57'1212.0
2014-Nov-16 22:33N 34°13' E 135°04'3 2.9
2014-Nov-16 21:26N 34°14' E 135°07'0 0.0
2014-Nov-16 20:32N 34°14' E 135°07'0 0.0
2014-Nov-16 19:29N 34°14' E 135°07'0 0.0
2014-Nov-16 18:32N 34°14' E 135°07'0 0.0
2014-Nov-16 17:32N 34°14' E 135°07'0 0.0
2014-Nov-16 16:32N 34°14' E 135°07'0 0.0
2014-Nov-16 15:32N 34°14' E 135°07'0 0.0
2014-Nov-16 14:29N 34°14' E 135°07'0 0.0
2014-Nov-16 12:26N 34°14' E 135°07'0 0.0
2014-Nov-16 11:29N 34°14' E 135°07'0 0.0
2014-Nov-16 10:32N 34°14' E 135°07'0 0.0
2014-Nov-16 09:32N 34°14' E 135°07'0 0.0
2014-Nov-16 08:32N 34°14' E 135°07'0 0.0
2014-Nov-16 07:29N 34°14' E 135°07'0 0.0
2014-Nov-16 06:32N 34°14' E 135°07'0 0.0
2014-Nov-16 05:32N 34°14' E 135°07'0 0.0
2014-Nov-16 04:32N 34°14' E 135°07'0 0.0
2014-Nov-16 03:32N 34°14' E 135°07'0 0.0
2014-Nov-16 02:26N 34°14' E 135°07'0 0.0
2014-Nov-16 01:32N 34°14' E 135°07'0 0.0
2014-Nov-16 00:32N 34°14' E 135°07'0 0.0
2014-Nov-15 23:26N 34°14' E 135°07'0 0.0
2014-Nov-15 22:32N 34°14' E 135°07'0 0.0
2014-Nov-15 21:32N 34°14' E 135°07'0 0.0
2014-Nov-15 20:32N 34°14' E 135°07'0 0.0
2014-Nov-15 19:29N 34°14' E 135°07'0 0.0
2014-Nov-15 18:29N 34°14' E 135°07'0 0.0
2014-Nov-15 17:32N 34°14' E 135°07'0 0.0
2014-Nov-15 16:32N 34°14' E 135°07'0 0.0
2014-Nov-15 15:31N 34°14' E 135°07'0 0.0
2014-Nov-15 14:29N 34°14' E 135°07'0 0.0
2014-Nov-15 13:29N 34°14' E 135°07'0 0.0
2014-Nov-15 12:26N 34°14' E 135°07'0 0.0
2014-Nov-15 11:32N 34°14' E 135°07'0 0.0
2014-Nov-15 10:29N 34°14' E 135°07'0 0.0
2014-Nov-15 09:29N 34°14' E 135°07'0 0.0
2014-Nov-15 08:26N 34°14' E 135°07'0 0.0
2014-Nov-15 07:32N 34°14' E 135°07'0 0.0
2014-Nov-15 06:32N 34°14' E 135°07'0 0.0
2014-Nov-15 05:32N 34°14' E 135°07'0 0.0
2014-Nov-15 04:32N 34°14' E 135°07'0 0.0
2014-Nov-15 03:32N 34°14' E 135°07'0 0.0
2014-Nov-15 02:14N 34°14' E 135°07'0 0.0
2014-Nov-15 01:29N 34°14' E 135°07'0 0.0
2014-Nov-15 00:29N 34°14' E 135°07'0 0.0
2014-Nov-14 23:26N 34°14' E 135°07'0 0.0
2014-Nov-14 22:31N 34°14' E 135°07'0 0.0
2014-Nov-14 21:29N 34°14' E 135°07'0 0.0
2014-Nov-14 20:32N 34°14' E 135°07'0 0.0
2014-Nov-14 19:31N 34°14' E 135°07'0 0.0
2014-Nov-14 18:32N 34°14' E 135°07'0 0.0
2014-Nov-14 17:31N 34°14' E 135°07'0 0.0
2014-Nov-14 16:32N 34°14' E 135°07'0 0.0
2014-Nov-14 15:32N 34°14' E 135°07'0 0.0
2014-Nov-14 14:32N 34°14' E 135°07'0 0.0
2014-Nov-14 12:32N 34°14' E 135°07'0 0.0
2014-Nov-14 11:32N 34°14' E 135°07'0 0.0
2014-Nov-14 10:32N 34°14' E 135°07'0 0.0
2014-Nov-14 09:29N 34°14' E 135°07'0 0.0
2014-Nov-14 08:29N 34°14' E 135°07'0 0.0
2014-Nov-14 07:29N 34°14' E 135°07'0 0.0
2014-Nov-14 06:32N 34°14' E 135°07'0 0.0
2014-Nov-14 05:29N 34°14' E 135°07'0 0.0
2014-Nov-14 04:29N 34°14' E 135°07'0 0.0
2014-Nov-14 03:29N 34°14' E 135°07'0 0.0
2014-Nov-14 02:32N 34°14' E 135°07'0 0.0
2014-Nov-14 01:32N 34°14' E 135°07'0 0.0
2014-Nov-14 00:32N 34°14' E 135°07'2 1.7
2014-Nov-13 23:30N 34°14' E 135°05'0 0.0
2014-Nov-13 22:33N 34°14' E 135°05'0 0.1
2014-Nov-13 21:33N 34°14' E 135°05'0 0.1
2014-Nov-13 20:33N 34°14' E 135°05'0 0.1
2014-Nov-13 19:33N 34°14' E 135°05'0 0.0
2014-Nov-13 18:33N 34°14' E 135°05'0 0.1
2014-Nov-13 17:33N 34°14' E 135°05'0 0.0
2014-Nov-13 16:33N 34°14' E 135°05'0 0.1
2014-Nov-13 15:33N 34°14' E 135°05'0 0.1
2014-Nov-13 14:33N 34°14' E 135°05'0 0.0
2014-Nov-13 13:33N 34°14' E 135°05'0 0.1
2014-Nov-13 12:33N 34°14' E 135°05'0 0.0
2014-Nov-13 11:33N 34°14' E 135°05'0 0.0
2014-Nov-13 10:33N 34°14' E 135°05'0 0.0
2014-Nov-13 09:33N 34°14' E 135°05'0 0.0
2014-Nov-13 08:33N 34°14' E 135°05'0 0.0
2014-Nov-13 07:33N 34°14' E 135°05'0 0.1
2014-Nov-13 06:33N 34°14' E 135°05'0 0.1
2014-Nov-13 05:33N 34°14' E 135°05'0 0.0
2014-Nov-13 04:24N 34°14' E 135°05'0 0.0
2014-Nov-13 03:33N 34°14' E 135°05'0 0.0
2014-Nov-13 02:18N 34°14' E 135°05'0 0.1
2014-Nov-13 01:33N 34°14' E 135°05'0 0.0
2014-Nov-13 00:33N 34°14' E 135°05'0 0.0
2014-Nov-12 23:33N 34°14' E 135°05'0 0.1
2014-Nov-12 22:33N 34°14' E 135°05'0 0.1
2014-Nov-12 21:30N 34°14' E 135°05'0 0.0
2014-Nov-12 20:33N 34°14' E 135°05'0 0.1
2014-Nov-12 19:33N 34°14' E 135°05'4 3.8
2014-Nov-12 18:33N 34°10' E 135°04'1111.0
2014-Nov-12 17:33N 33°59' E 135°00'  
Track history (hours):
 
Tides and Currents Weather Stations Pressure Air Temp Water Temp Dewpoint Dewpoint Depression Visibility Wind Speed Wind Dir Waves Ship Positions

Bright Hope

Last reported at 2014-Nov-21 19:15 UTC. Time now 2014-Nov-22 14:25 UTC.
Position N 22°49' E 120°03'.

Length 170 m; draft 5.9 m.

Type: Cargo ship. MMSI: 371117000.

Date/timePositionNaut miles runAvg speedWind from/ knotsBaromVisibWave heightAir tempDewpointWater temp
2014-Nov-21 19:15N 22°49' E 120°03'913.0
2014-Nov-21 18:33N 22°42' E 120°09'10 9.8
2014-Nov-21 17:33N 22°37' E 120°17'1 0.6
2014-Nov-21 16:34N 22°36' E 120°18'0 0.0
2014-Nov-21 15:28N 22°36' E 120°18'0 0.0
2014-Nov-21 14:34N 22°36' E 120°18'0 0.0
2014-Nov-21 13:28N 22°36' E 120°18'0 0.0
2014-Nov-21 12:28N 22°36' E 120°18'0 0.0
2014-Nov-21 11:28N 22°36' E 120°18'0 0.0
2014-Nov-21 10:34N 22°36' E 120°18'0 0.0
2014-Nov-21 09:28N 22°36' E 120°18'0 0.0
2014-Nov-21 08:22N 22°36' E 120°18'0 0.0
2014-Nov-21 07:34N 22°36' E 120°18'0 0.0
2014-Nov-21 06:28N 22°36' E 120°18'0 0.0
2014-Nov-21 05:28N 22°36' E 120°18'0 0.0
2014-Nov-21 04:28N 22°36' E 120°18'0 0.0
2014-Nov-21 03:28N 22°36' E 120°18'0 0.0
2014-Nov-21 02:22N 22°36' E 120°18'0 0.0
2014-Nov-21 01:33N 22°36' E 120°18'1 0.9
2014-Nov-21 00:33N 22°37' E 120°17'5 5.5
2014-Nov-20 23:34N 22°38' E 120°11'6 6.0
2014-Nov-20 22:33N 22°42' E 120°07'1111.2
2014-Nov-20 21:33N 22°49' E 119°57'  
2014-Nov-17 00:11N 33°55' E 134°54'812.3
2014-Nov-16 23:33N 34°03' E 134°57'1212.0
2014-Nov-16 22:33N 34°13' E 135°04'3 2.9
2014-Nov-16 21:26N 34°14' E 135°07'0 0.0
2014-Nov-16 20:32N 34°14' E 135°07'0 0.0
2014-Nov-16 19:29N 34°14' E 135°07'0 0.0
2014-Nov-16 18:32N 34°14' E 135°07'0 0.0
2014-Nov-16 17:32N 34°14' E 135°07'0 0.0
2014-Nov-16 16:32N 34°14' E 135°07'0 0.0
2014-Nov-16 15:32N 34°14' E 135°07'0 0.0
2014-Nov-16 14:29N 34°14' E 135°07'0 0.0
2014-Nov-16 12:26N 34°14' E 135°07'0 0.0
2014-Nov-16 11:29N 34°14' E 135°07'0 0.0
2014-Nov-16 10:32N 34°14' E 135°07'0 0.0
2014-Nov-16 09:32N 34°14' E 135°07'0 0.0
2014-Nov-16 08:32N 34°14' E 135°07'0 0.0
2014-Nov-16 07:29N 34°14' E 135°07'0 0.0
2014-Nov-16 06:32N 34°14' E 135°07'0 0.0
2014-Nov-16 05:32N 34°14' E 135°07'0 0.0
2014-Nov-16 04:32N 34°14' E 135°07'0 0.0
2014-Nov-16 03:32N 34°14' E 135°07'0 0.0
2014-Nov-16 02:26N 34°14' E 135°07'0 0.0
2014-Nov-16 01:32N 34°14' E 135°07'0 0.0
2014-Nov-16 00:32N 34°14' E 135°07'0 0.0
2014-Nov-15 23:26N 34°14' E 135°07'0 0.0
2014-Nov-15 22:32N 34°14' E 135°07'0 0.0
2014-Nov-15 21:32N 34°14' E 135°07'0 0.0
2014-Nov-15 20:32N 34°14' E 135°07'0 0.0
2014-Nov-15 19:29N 34°14' E 135°07'0 0.0
2014-Nov-15 18:29N 34°14' E 135°07'0 0.0
2014-Nov-15 17:32N 34°14' E 135°07'0 0.0
2014-Nov-15 16:32N 34°14' E 135°07'0 0.0
2014-Nov-15 15:31N 34°14' E 135°07'0 0.0
2014-Nov-15 14:29N 34°14' E 135°07'0 0.0
2014-Nov-15 13:29N 34°14' E 135°07'0 0.0
2014-Nov-15 12:26N 34°14' E 135°07'0 0.0
2014-Nov-15 11:32N 34°14' E 135°07'0 0.0
2014-Nov-15 10:29N 34°14' E 135°07'0 0.0
2014-Nov-15 09:29N 34°14' E 135°07'0 0.0
2014-Nov-15 08:26N 34°14' E 135°07'0 0.0
2014-Nov-15 07:32N 34°14' E 135°07'0 0.0
2014-Nov-15 06:32N 34°14' E 135°07'0 0.0
2014-Nov-15 05:32N 34°14' E 135°07'0 0.0
2014-Nov-15 04:32N 34°14' E 135°07'0 0.0
2014-Nov-15 03:32N 34°14' E 135°07'0 0.0
2014-Nov-15 02:14N 34°14' E 135°07'0 0.0
2014-Nov-15 01:29N 34°14' E 135°07'0 0.0
2014-Nov-15 00:29N 34°14' E 135°07'0 0.0
2014-Nov-14 23:26N 34°14' E 135°07'0 0.0
2014-Nov-14 22:31N 34°14' E 135°07'0 0.0
2014-Nov-14 21:29N 34°14' E 135°07'0 0.0
2014-Nov-14 20:32N 34°14' E 135°07'0 0.0
2014-Nov-14 19:31N 34°14' E 135°07'0 0.0
2014-Nov-14 18:32N 34°14' E 135°07'0 0.0
2014-Nov-14 17:31N 34°14' E 135°07'0 0.0
2014-Nov-14 16:32N 34°14' E 135°07'0 0.0
2014-Nov-14 15:32N 34°14' E 135°07'0 0.0
2014-Nov-14 14:32N 34°14' E 135°07'0 0.0
2014-Nov-14 12:32N 34°14' E 135°07'0 0.0
2014-Nov-14 11:32N 34°14' E 135°07'0 0.0
2014-Nov-14 10:32N 34°14' E 135°07'0 0.0
2014-Nov-14 09:29N 34°14' E 135°07'0 0.0
2014-Nov-14 08:29N 34°14' E 135°07'0 0.0
2014-Nov-14 07:29N 34°14' E 135°07'0 0.0
2014-Nov-14 06:32N 34°14' E 135°07'0 0.0
2014-Nov-14 05:29N 34°14' E 135°07'0 0.0
2014-Nov-14 04:29N 34°14' E 135°07'0 0.0
2014-Nov-14 03:29N 34°14' E 135°07'0 0.0
2014-Nov-14 02:32N 34°14' E 135°07'0 0.0
2014-Nov-14 01:32N 34°14' E 135°07'0 0.0
2014-Nov-14 00:32N 34°14' E 135°07'2 1.7
2014-Nov-13 23:30N 34°14' E 135°05'0 0.0
2014-Nov-13 22:33N 34°14' E 135°05'0 0.1
2014-Nov-13 21:33N 34°14' E 135°05'0 0.1
2014-Nov-13 20:33N 34°14' E 135°05'0 0.1
2014-Nov-13 19:33N 34°14' E 135°05'0 0.0
2014-Nov-13 18:33N 34°14' E 135°05'0 0.1
2014-Nov-13 17:33N 34°14' E 135°05'0 0.0
2014-Nov-13 16:33N 34°14' E 135°05'0 0.1
2014-Nov-13 15:33N 34°14' E 135°05'0 0.1
2014-Nov-13 14:33N 34°14' E 135°05'0 0.0
2014-Nov-13 13:33N 34°14' E 135°05'0 0.1
2014-Nov-13 12:33N 34°14' E 135°05'0 0.0
2014-Nov-13 11:33N 34°14' E 135°05'0 0.0
2014-Nov-13 10:33N 34°14' E 135°05'0 0.0
2014-Nov-13 09:33N 34°14' E 135°05'0 0.0
2014-Nov-13 08:33N 34°14' E 135°05'0 0.0
2014-Nov-13 07:33N 34°14' E 135°05'0 0.1
2014-Nov-13 06:33N 34°14' E 135°05'0 0.1
2014-Nov-13 05:33N 34°14' E 135°05'0 0.0
2014-Nov-13 04:24N 34°14' E 135°05'0 0.0
2014-Nov-13 03:33N 34°14' E 135°05'0 0.0
2014-Nov-13 02:18N 34°14' E 135°05'0 0.1
2014-Nov-13 01:33N 34°14' E 135°05'0 0.0
2014-Nov-13 00:33N 34°14' E 135°05'0 0.0
2014-Nov-12 23:33N 34°14' E 135°05'0 0.1
2014-Nov-12 22:33N 34°14' E 135°05'0 0.1
2014-Nov-12 21:30N 34°14' E 135°05'0 0.0
2014-Nov-12 20:33N 34°14' E 135°05'0 0.1
2014-Nov-12 19:33N 34°14' E 135°05'4 3.8
2014-Nov-12 18:33N 34°10' E 135°04'1111.0
2014-Nov-12 17:33N 33°59' E 135°00'  

Dump ship's entire track history